Time;durP1;ratioP1;P1;durP2;ratioP2;P2;SDS_P1;SDS_P2;PMS_P1;PMS_P2;Temp;Humidity;BMP_temperature;BMP_pressure;BME280_temperature;BME280_humidity;BME280_pressure;Samples;Min_cycle;Max_cycle;Signal;HPM_P1;HPM_P2
2021/09/30 00:00:34;;;;;;;3.30;1.35;;;11.70;82.80;;;;;;5066888;28;20024;-74
2021/09/30 00:03:00;;;;;;;4.03;1.35;;;11.70;82.80;;;;;;5054504;28;20073;-74
2021/09/30 00:05:26;;;;;;;4.03;1.38;;;11.70;82.70;;;;;;5069326;28;20063;-74
2021/09/30 00:07:52;;;;;;;5.72;1.50;;;11.70;82.60;;;;;;5085832;28;20198;-74
2021/09/30 00:10:21;;;;;;;3.05;1.40;;;11.70;82.60;;;;;;5054455;28;20040;-73
2021/09/30 00:12:53;;;;;;;3.45;1.27;;;11.70;82.60;;;;;;5066548;28;20028;-72
2021/09/30 00:15:35;;;;;;;4.22;1.20;;;11.60;82.50;;;;;;5071605;28;20470;-74
2021/09/30 00:34:42;;;;;;;3.35;1.67;;;11.50;83.20;;;;;;5076113;28;20094;-73
2021/09/30 00:50:28;;;;;;;6.93;1.50;;;11.40;83.30;;;;;;5066413;28;20036;-74
2021/09/30 01:52:50;;;;;;;8.88;3.20;;;11.10;84.70;;;;;;5062156;28;20043;-74
2021/09/30 02:20:21;;;;;;;7.25;3.88;;;11.00;84.60;;;;;;5090078;28;20035;-73
2021/09/30 02:25:48;;;;;;;8.40;3.47;;;11.00;84.60;;;;;;5086983;28;20134;-74
2021/09/30 03:00:58;;;;;;;9.35;4.22;;;10.80;84.20;;;;;;5090228;28;20739;-74
2021/09/30 03:03:25;;;;;;;6.38;3.60;;;10.80;84.30;;;;;;5088159;28;20232;-74
2021/09/30 03:05:55;;;;;;;7.93;4.20;;;10.80;84.30;;;;;;5058529;28;20027;-74
2021/09/30 03:08:25;;;;;;;7.10;3.30;;;10.80;84.30;;;;;;5080039;28;20028;-74
2021/09/30 03:10:54;;;;;;;10.60;4.38;;;10.80;84.30;;;;;;5059216;28;20024;-74
2021/09/30 03:13:23;;;;;;;8.23;4.30;;;10.80;84.20;;;;;;5065763;28;20054;-74
2021/09/30 03:16:00;;;;;;;10.00;4.95;;;10.80;84.20;;;;;;5067754;28;20024;-73
2021/09/30 03:23:33;;;;;;;6.78;3.72;;;10.70;84.10;;;;;;5067335;28;20031;-74
2021/09/30 03:26:00;;;;;;;7.13;4.05;;;10.70;84.10;;;;;;5066338;28;20032;-74
2021/09/30 03:28:27;;;;;;;8.13;3.80;;;10.60;84.10;;;;;;5086796;28;20467;-74
2021/09/30 03:30:54;;;;;;;7.80;3.70;;;10.60;84.20;;;;;;5083163;28;20016;-72
2021/09/30 03:33:21;;;;;;;9.15;3.72;;;10.60;84.20;;;;;;5064759;28;20609;-72
2021/09/30 03:35:47;;;;;;;9.50;4.18;;;10.60;84.20;;;;;;5081907;28;20104;-73
2021/09/30 03:38:14;;;;;;;7.35;4.03;;;10.60;84.20;;;;;;5071329;28;20630;-74
2021/09/30 03:40:41;;;;;;;9.63;3.97;;;10.60;84.30;;;;;;5089512;28;20081;-74
2021/09/30 03:43:07;;;;;;;8.57;3.85;;;10.60;84.30;;;;;;5069416;28;20513;-74
2021/09/30 03:45:33;;;;;;;8.35;3.38;;;10.60;84.20;;;;;;5070021;28;20103;-74
2021/09/30 03:47:59;;;;;;;12.57;4.57;;;10.60;84.20;;;;;;5066336;28;20386;-74
2021/09/30 03:50:29;;;;;;;8.13;3.78;;;10.60;84.20;;;;;;5075619;28;20043;-73
2021/09/30 03:53:44;;;;;;;11.07;3.85;;;10.60;84.10;;;;;;5087998;28;20035;-72
2021/09/30 04:01:12;;;;;;;11.82;3.88;;;10.50;84.10;;;;;;5054105;28;20085;-72
2021/09/30 04:03:38;;;;;;;7.97;3.30;;;10.50;84.10;;;;;;5064667;28;20446;-73
2021/09/30 04:06:04;;;;;;;8.13;3.03;;;10.50;84.20;;;;;;5070395;28;20073;-73
2021/09/30 04:08:31;;;;;;;8.93;3.50;;;10.50;84.10;;;;;;5088053;28;20382;-73
2021/09/30 04:10:56;;;;;;;8.88;3.28;;;10.50;84.10;;;;;;5077964;28;20024;-73
2021/09/30 04:13:22;;;;;;;10.00;3.58;;;10.50;84.10;;;;;;5050525;28;20043;-74
2021/09/30 04:15:50;;;;;;;11.40;3.30;;;10.50;84.10;;;;;;5070762;28;20028;-74
2021/09/30 04:18:17;;;;;;;10.70;3.40;;;10.50;84.00;;;;;;5056228;28;20036;-74
2021/09/30 04:20:42;;;;;;;9.60;3.10;;;10.50;84.00;;;;;;5081056;28;20020;-74
2021/09/30 04:23:08;;;;;;;6.97;2.97;;;10.50;84.00;;;;;;5069481;28;20531;-74
2021/09/30 04:25:34;;;;;;;10.95;3.42;;;10.50;84.10;;;;;;5070932;28;20032;-73
2021/09/30 04:28:00;;;;;;;9.93;3.72;;;10.40;84.20;;;;;;5089129;28;20017;-73
2021/09/30 04:30:26;;;;;;;13.80;3.40;;;10.40;84.20;;;;;;5066366;28;20414;-74
2021/09/30 04:32:52;;;;;;;11.65;3.25;;;10.40;84.20;;;;;;5085058;28;20106;-74
2021/09/30 04:35:18;;;;;;;9.65;3.20;;;10.40;84.30;;;;;;5088494;28;20077;-74
2021/09/30 04:37:44;;;;;;;12.60;3.83;;;10.40;84.30;;;;;;5070371;28;20020;-72
2021/09/30 04:40:10;;;;;;;10.77;4.07;;;10.40;84.30;;;;;;5088076;28;20026;-73
2021/09/30 04:42:36;;;;;;;8.75;3.00;;;10.40;84.30;;;;;;5088698;28;20070;-73
2021/09/30 04:45:02;;;;;;;9.43;3.55;;;10.40;84.30;;;;;;5079179;28;20024;-74
2021/09/30 04:47:28;;;;;;;10.32;3.72;;;10.40;84.30;;;;;;5085315;28;20484;-73
2021/09/30 04:49:53;;;;;;;8.40;3.47;;;10.30;84.40;;;;;;5064357;28;20020;-73
2021/09/30 04:52:20;;;;;;;11.38;3.53;;;10.30;84.40;;;;;;5085142;28;20106;-73
2021/09/30 04:54:46;;;;;;;8.48;3.20;;;10.30;84.60;;;;;;5088169;28;20099;-73
2021/09/30 04:57:12;;;;;;;14.63;3.42;;;10.30;84.50;;;;;;5059785;28;20052;-73
2021/09/30 04:59:38;;;;;;;11.20;4.10;;;10.30;84.50;;;;;;5088175;28;20048;-72
2021/09/30 05:02:04;;;;;;;10.65;3.60;;;10.30;84.50;;;;;;5087149;28;20294;-73
2021/09/30 05:04:29;;;;;;;14.55;3.83;;;10.30;84.60;;;;;;5075504;28;20036;-73
2021/09/30 05:06:55;;;;;;;12.00;3.65;;;10.30;84.60;;;;;;5085132;28;20450;-74
2021/09/30 05:09:23;;;;;;;16.13;5.05;;;10.30;84.50;;;;;;5080416;28;20059;-74
2021/09/30 05:11:55;;;;;;;11.75;4.75;;;10.30;84.60;;;;;;5086427;28;20478;-73
2021/09/30 05:14:21;;;;;;;13.43;3.87;;;10.30;84.70;;;;;;5085168;28;20097;-74
2021/09/30 05:16:48;;;;;;;10.57;3.63;;;10.20;84.60;;;;;;5068539;28;20293;-74
2021/09/30 05:19:14;;;;;;;7.30;3.83;;;10.30;84.70;;;;;;5056289;28;20028;-74
2021/09/30 05:21:39;;;;;;;9.43;4.22;;;10.30;84.80;;;;;;5074004;28;20026;-74
2021/09/30 05:24:05;;;;;;;12.57;4.30;;;10.30;84.80;;;;;;5072522;28;20129;-74
2021/09/30 05:26:31;;;;;;;13.18;4.20;;;10.30;84.70;;;;;;5086399;28;20028;-74
2021/09/30 05:28:57;;;;;;;9.52;3.83;;;10.30;84.60;;;;;;5070351;28;20040;-72
2021/09/30 05:31:24;;;;;;;9.77;3.90;;;10.30;84.60;;;;;;5071408;28;20027;-72
2021/09/30 05:33:50;;;;;;;10.73;3.80;;;10.20;84.60;;;;;;5083770;28;20028;-72
2021/09/30 05:36:17;;;;;;;12.27;4.30;;;10.20;84.60;;;;;;5090911;28;20082;-73
2021/09/30 05:38:43;;;;;;;8.65;4.03;;;10.20;84.70;;;;;;5081667;28;20958;-72
2021/09/30 05:41:08;;;;;;;8.80;3.53;;;10.20;84.60;;;;;;5078691;28;20136;-74
2021/09/30 05:43:36;;;;;;;8.93;4.50;;;10.20;84.60;;;;;;5083488;28;20039;-72
2021/09/30 05:46:04;;;;;;;9.20;3.70;;;10.20;84.70;;;;;;5056760;28;20368;-73
2021/09/30 05:48:30;;;;;;;10.43;4.13;;;10.20;84.60;;;;;;5088214;28;20442;-73
2021/09/30 05:50:56;;;;;;;9.18;4.28;;;10.20;84.50;;;;;;5082469;28;20143;-73
2021/09/30 05:53:22;;;;;;;8.73;3.97;;;10.10;84.50;;;;;;5069269;28;20026;-73
2021/09/30 05:55:49;;;;;;;14.82;4.72;;;10.10;84.70;;;;;;5075444;28;20029;-73
2021/09/30 05:58:16;;;;;;;16.73;4.50;;;10.20;84.60;;;;;;5061930;28;20039;-73
2021/09/30 06:14:10;;;;;;;12.25;4.25;;;10.10;84.40;;;;;;5078994;28;20090;-74
2021/09/30 06:16:38;;;;;;;12.25;4.63;;;10.10;84.40;;;;;;5087916;28;20021;-74
2021/09/30 06:19:04;;;;;;;14.18;4.65;;;10.10;84.30;;;;;;5073872;28;20458;-74
2021/09/30 06:21:30;;;;;;;9.75;4.00;;;10.10;84.40;;;;;;5085220;28;20123;-73
2021/09/30 06:23:56;;;;;;;10.75;3.97;;;10.10;84.30;;;;;;5090664;28;20032;-73
2021/09/30 06:26:22;;;;;;;12.45;4.40;;;10.20;84.40;;;;;;5072631;28;20020;-74
2021/09/30 06:28:48;;;;;;;10.55;3.97;;;10.10;84.30;;;;;;5087441;28;20482;-74
2021/09/30 06:31:13;;;;;;;10.80;4.20;;;10.10;84.30;;;;;;5072566;28;20255;-73
2021/09/30 06:33:39;;;;;;;10.25;3.83;;;10.10;84.40;;;;;;5059186;28;20025;-74
2021/09/30 06:36:05;;;;;;;12.68;4.00;;;10.20;84.40;;;;;;5080837;28;20041;-73
2021/09/30 06:38:31;;;;;;;9.18;3.85;;;10.20;84.50;;;;;;5070194;28;20028;-72
2021/09/30 06:40:57;;;;;;;9.15;3.97;;;10.30;84.40;;;;;;5056006;28;20079;-72
2021/09/30 06:43:22;;;;;;;9.68;3.92;;;10.30;84.20;;;;;;5071979;28;20047;-73
2021/09/30 06:45:51;;;;;;;6.53;3.63;;;10.30;84.40;;;;;;5066679;28;20043;-73
2021/09/30 06:48:17;;;;;;;13.15;4.47;;;10.30;84.30;;;;;;5069168;28;20066;-73
2021/09/30 06:50:43;;;;;;;9.30;4.10;;;10.30;84.80;;;;;;5082049;28;20040;-73
2021/09/30 06:53:09;;;;;;;8.10;3.92;;;10.30;84.10;;;;;;5091673;28;20032;-75
2021/09/30 06:55:35;;;;;;;11.57;4.43;;;10.30;84.00;;;;;;5085294;28;20090;-74
2021/09/30 06:58:01;;;;;;;10.73;3.45;;;10.40;84.00;;;;;;5082127;28;20036;-74
2021/09/30 07:00:27;;;;;;;8.98;3.88;;;10.40;84.00;;;;;;5084923;28;20426;-75
2021/09/30 07:02:54;;;;;;;12.27;3.97;;;10.40;83.90;;;;;;5082577;28;20024;-73
2021/09/30 07:05:20;;;;;;;11.75;4.10;;;10.50;83.80;;;;;;5065593;28;20072;-74
2021/09/30 07:07:46;;;;;;;11.43;3.22;;;10.50;83.50;;;;;;5055400;28;20056;-75
2021/09/30 07:10:12;;;;;;;9.85;4.38;;;10.50;83.50;;;;;;5082497;28;20051;-74
2021/09/30 07:12:39;;;;;;;9.82;3.30;;;10.50;83.40;;;;;;5086926;28;20028;-73
2021/09/30 07:15:05;;;;;;;9.70;4.28;;;10.60;83.50;;;;;;5086520;28;20032;-73
2021/09/30 07:17:31;;;;;;;10.10;4.40;;;10.60;83.50;;;;;;5071162;28;20419;-73
2021/09/30 07:19:58;;;;;;;10.82;3.60;;;10.70;83.60;;;;;;5064037;28;20078;-74
2021/09/30 07:22:24;;;;;;;12.20;3.00;;;10.70;83.50;;;;;;5080625;28;20016;-74
2021/09/30 07:24:50;;;;;;;6.75;3.30;;;10.80;83.20;;;;;;5082809;28;20028;-74
2021/09/30 07:27:15;;;;;;;10.77;3.75;;;10.80;83.40;;;;;;5068020;28;20137;-74
2021/09/30 07:29:41;;;;;;;12.23;3.47;;;10.90;83.30;;;;;;5072352;28;20036;-74
2021/09/30 07:32:07;;;;;;;8.93;3.10;;;11.00;83.20;;;;;;5063793;28;20036;-74
2021/09/30 07:34:33;;;;;;;11.75;3.67;;;11.00;83.00;;;;;;5087703;28;20028;-75
2021/09/30 07:36:59;;;;;;;7.15;3.20;;;11.00;82.70;;;;;;5052007;28;20044;-74
2021/09/30 07:39:25;;;;;;;9.27;3.40;;;11.10;82.90;;;;;;5078827;28;20024;-74
2021/09/30 07:41:51;;;;;;;10.90;3.65;;;11.10;82.40;;;;;;5082613;28;20031;-74
2021/09/30 07:44:18;;;;;;;6.75;3.20;;;11.20;82.20;;;;;;5083345;28;20515;-74
2021/09/30 07:46:45;;;;;;;10.55;3.42;;;11.20;82.10;;;;;;5069384;28;20521;-74
2021/09/30 07:49:12;;;;;;;8.50;3.30;;;11.20;82.40;;;;;;5081011;28;20020;-74
2021/09/30 07:51:38;;;;;;;9.80;3.40;;;11.30;82.50;;;;;;5078460;28;20029;-74
2021/09/30 07:54:05;;;;;;;7.13;3.20;;;11.30;82.20;;;;;;5082091;28;20043;-74
2021/09/30 07:56:32;;;;;;;9.52;3.65;;;11.30;81.90;;;;;;5084828;28;20044;-74
2021/09/30 07:58:58;;;;;;;10.00;3.33;;;11.40;81.10;;;;;;5064254;28;20025;-74
2021/09/30 08:01:24;;;;;;;12.13;4.03;;;11.40;80.80;;;;;;5081518;28;20549;-74
2021/09/30 08:03:50;;;;;;;10.07;3.78;;;11.40;80.50;;;;;;5065183;28;20038;-74
2021/09/30 08:06:17;;;;;;;7.47;3.00;;;11.40;80.50;;;;;;5085630;28;20031;-74
2021/09/30 08:08:43;;;;;;;13.18;3.15;;;11.40;80.70;;;;;;5067759;28;20089;-73
2021/09/30 08:11:09;;;;;;;6.75;3.17;;;11.50;80.70;;;;;;5060390;28;20104;-72
2021/09/30 08:13:35;;;;;;;7.22;2.97;;;11.50;80.90;;;;;;5066545;28;20031;-73
2021/09/30 08:16:01;;;;;;;9.73;2.90;;;11.60;80.70;;;;;;5082666;28;20073;-72
2021/09/30 08:18:27;;;;;;;10.52;3.20;;;11.70;80.60;;;;;;5062080;28;20635;-72
2021/09/30 08:20:54;;;;;;;8.65;2.90;;;11.80;80.00;;;;;;5051382;28;20024;-73
2021/09/30 08:23:20;;;;;;;9.45;2.95;;;11.90;79.00;;;;;;5079320;28;20063;-73
2021/09/30 08:25:47;;;;;;;7.93;2.58;;;11.90;79.20;;;;;;5079558;28;20051;-73
2021/09/30 08:28:13;;;;;;;7.82;2.70;;;12.00;79.80;;;;;;5084733;28;20032;-73
2021/09/30 08:30:40;;;;;;;7.70;3.00;;;12.00;79.60;;;;;;5075306;28;20789;-73
2021/09/30 08:33:10;;;;;;;7.20;3.17;;;12.10;79.30;;;;;;5078580;28;20027;-73
2021/09/30 08:35:37;;;;;;;8.77;2.90;;;12.10;78.40;;;;;;5080578;28;20516;-73
2021/09/30 08:38:05;;;;;;;7.53;2.80;;;12.10;77.90;;;;;;5061120;28;20494;-73
2021/09/30 08:40:31;;;;;;;9.77;2.75;;;12.20;78.00;;;;;;5080304;28;20020;-72
2021/09/30 08:42:56;;;;;;;11.55;3.10;;;12.30;78.10;;;;;;5063115;28;20449;-73
2021/09/30 08:45:23;;;;;;;8.70;2.70;;;12.40;78.10;;;;;;5063754;28;20139;-73
2021/09/30 08:48:04;;;;;;;6.25;3.28;;;12.50;78.30;;;;;;5052231;28;20032;-73
2021/09/30 08:50:33;;;;;;;6.20;2.60;;;12.60;77.40;;;;;;5078791;28;20433;-72
2021/09/30 08:53:01;;;;;;;9.30;2.58;;;12.70;77.00;;;;;;5064502;28;20024;-74
2021/09/30 08:55:26;;;;;;;6.43;2.45;;;12.70;77.10;;;;;;5077088;28;20452;-73
2021/09/30 08:57:52;;;;;;;9.05;2.75;;;12.70;76.10;;;;;;5078423;28;20044;-72
2021/09/30 09:00:20;;;;;;;11.50;2.92;;;12.70;76.20;;;;;;5062658;28;20020;-72
2021/09/30 09:02:51;;;;;;;8.88;2.55;;;12.80;76.30;;;;;;5079661;28;20065;-72
2021/09/30 09:05:18;;;;;;;5.68;2.40;;;12.90;76.00;;;;;;5082113;28;20478;-72
2021/09/30 09:07:53;;;;;;;7.72;2.72;;;12.90;76.30;;;;;;5082414;28;20028;-73
2021/09/30 09:10:20;;;;;;;7.93;2.75;;;13.00;76.50;;;;;;5082265;28;20049;-72
2021/09/30 09:12:46;;;;;;;7.68;2.92;;;13.10;76.10;;;;;;5065956;28;20394;-73
2021/09/30 09:15:12;;;;;;;5.43;2.35;;;13.20;75.30;;;;;;5050794;28;20036;-72
2021/09/30 09:17:40;;;;;;;9.43;2.75;;;13.30;74.50;;;;;;5061814;28;20394;-73
2021/09/30 09:20:06;;;;;;;5.88;2.78;;;13.30;74.00;;;;;;5056280;28;20037;-73
2021/09/30 09:22:36;;;;;;;7.05;2.33;;;13.40;74.90;;;;;;5064351;28;20032;-72
2021/09/30 09:25:04;;;;;;;11.30;2.83;;;13.40;74.10;;;;;;5061852;28;20066;-72
2021/09/30 09:27:49;;;;;;;5.60;2.60;;;13.50;74.30;;;;;;5083169;28;20024;-72
2021/09/30 09:30:40;;;;;;;10.27;2.97;;;13.60;74.70;;;;;;5067150;28;20024;-72
2021/09/30 09:33:21;;;;;;;6.72;2.88;;;13.70;74.00;;;;;;5061334;28;20087;-72
2021/09/30 09:38:49;;;;;;;7.20;2.17;;;13.90;72.90;;;;;;5084413;28;20103;-72
2021/09/30 09:41:29;;;;;;;11.45;3.17;;;13.90;72.80;;;;;;5083897;28;20028;-72
2021/09/30 09:43:57;;;;;;;8.30;2.55;;;14.00;72.30;;;;;;5079808;28;20551;-73
2021/09/30 09:46:31;;;;;;;8.20;2.72;;;14.00;71.10;;;;;;5064646;28;20021;-72
2021/09/30 09:49:01;;;;;;;5.63;2.45;;;13.90;71.60;;;;;;5065964;28;20264;-74
2021/09/30 09:51:39;;;;;;;5.80;2.60;;;13.90;72.30;;;;;;5084302;28;20059;-73
2021/09/30 09:54:10;;;;;;;11.15;3.20;;;13.80;73.10;;;;;;5062503;28;20028;-73
2021/09/30 09:56:36;;;;;;;11.10;2.50;;;13.80;72.60;;;;;;5067966;28;20394;-74
2021/09/30 09:59:02;;;;;;;8.98;2.55;;;13.90;73.10;;;;;;5084702;28;20024;-73
2021/09/30 10:01:38;;;;;;;9.52;2.88;;;13.90;72.30;;;;;;5085645;28;20024;-74
2021/09/30 10:04:03;;;;;;;4.78;2.17;;;14.00;71.60;;;;;;5070458;28;20028;-74
2021/09/30 10:06:34;;;;;;;7.63;2.33;;;14.00;72.40;;;;;;5068513;28;20386;-73
2021/09/30 10:09:01;;;;;;;6.38;2.50;;;14.20;71.90;;;;;;5088787;28;20032;-74
2021/09/30 10:11:27;;;;;;;7.85;2.35;;;14.30;71.70;;;;;;5087394;28;20028;-73
2021/09/30 10:13:58;;;;;;;8.43;2.55;;;14.40;71.90;;;;;;5088089;28;20478;-72
2021/09/30 10:16:25;;;;;;;4.78;1.83;;;14.60;71.10;;;;;;5066088;28;20027;-72
2021/09/30 10:18:56;;;;;;;7.00;2.10;;;14.70;70.90;;;;;;5066675;28;20032;-72
2021/09/30 10:21:23;;;;;;;9.77;2.03;;;14.70;68.40;;;;;;5068872;28;20024;-73
2021/09/30 10:23:51;;;;;;;11.80;2.47;;;14.70;69.20;;;;;;5068060;28;20028;-74
2021/09/30 10:26:32;;;;;;;8.13;2.95;;;14.70;68.50;;;;;;5065658;28;20016;-73
2021/09/30 10:28:59;;;;;;;9.20;1.90;;;14.80;67.80;;;;;;5083071;28;20432;-74
2021/09/30 10:31:31;;;;;;;6.47;2.05;;;14.80;69.00;;;;;;5081446;28;20020;-72
2021/09/30 10:33:58;;;;;;;;;;;14.90;68.50;;;;;;5066741;28;20071;-74
2021/09/30 10:36:37;;;;;;;7.00;1.77;;;15.00;68.40;;;;;;5083688;28;19919;-73
2021/09/30 10:39:26;;;;;;;7.30;1.60;;;15.00;68.40;;;;;;5080656;28;20108;-73
2021/09/30 10:42:03;;;;;;;8.10;1.67;;;15.10;67.70;;;;;;5077382;28;20048;-71
2021/09/30 10:44:35;;;;;;;7.75;2.20;;;15.10;67.20;;;;;;5078041;28;20150;-74
2021/09/30 10:47:05;;;;;;;6.63;1.90;;;15.10;65.40;;;;;;5064704;28;20032;-72
2021/09/30 10:49:35;;;;;;;8.82;1.85;;;15.20;65.80;;;;;;5061776;28;20035;-72
2021/09/30 10:52:18;;;;;;;8.02;1.88;;;15.40;66.30;;;;;;5085163;28;20367;-74
2021/09/30 10:54:55;;;;;;;5.28;1.70;;;15.60;65.80;;;;;;5063859;28;20031;-73
2021/09/30 10:57:34;;;;;;;12.90;2.10;;;15.70;65.10;;;;;;5081137;28;20057;-74
2021/09/30 11:00:00;;;;;;;6.53;1.60;;;15.80;64.70;;;;;;5080671;28;20036;-74
2021/09/30 11:02:26;;;;;;;6.82;1.98;;;15.80;64.00;;;;;;5067816;28;20552;-74
2021/09/30 11:05:08;;;;;;;5.55;1.70;;;15.70;62.90;;;;;;5065053;28;20040;-74
2021/09/30 11:07:38;;;;;;;7.10;1.95;;;15.60;64.40;;;;;;5063508;28;20024;-73
2021/09/30 11:10:16;;;;;;;7.30;1.55;;;15.60;63.60;;;;;;5082965;28;20131;-74
2021/09/30 11:13:22;;;;;;;6.35;1.20;;;15.40;63.00;;;;;;5081355;28;20032;-74
2021/09/30 11:16:17;;;;;;;6.00;1.70;;;15.40;64.80;;;;;;5089484;28;20062;-74
2021/09/30 11:18:55;;;;;;;7.00;1.80;;;15.40;63.40;;;;;;5070069;28;20119;-74
2021/09/30 11:21:32;;;;;;;7.50;1.75;;;15.50;62.90;;;;;;5066149;28;20024;-74
2021/09/30 11:24:18;;;;;;;7.88;1.70;;;15.60;63.50;;;;;;5087504;28;20024;-74
2021/09/30 11:26:53;;;;;;;6.88;1.98;;;15.70;63.40;;;;;;5090026;28;20028;-73
2021/09/30 11:29:21;;;;;;;7.38;2.20;;;15.80;63.30;;;;;;5092291;28;20031;-70
2021/09/30 11:31:51;;;;;;;6.03;2.65;;;15.90;61.20;;;;;;5087721;28;20032;-70
2021/09/30 11:34:48;;;;;;;7.60;3.53;;;15.90;61.40;;;;;;5087688;28;20061;-73
2021/09/30 11:37:18;;;;;;;6.35;2.75;;;15.90;61.80;;;;;;5083229;28;20044;-69
2021/09/30 11:39:49;;;;;;;5.10;1.63;;;15.90;62.80;;;;;;5068087;28;20486;-72
2021/09/30 11:42:25;;;;;;;6.10;1.80;;;15.90;62.60;;;;;;5064966;28;20060;-70
2021/09/30 11:45:02;;;;;;;5.72;1.48;;;15.90;61.60;;;;;;5070363;28;20025;-73
2021/09/30 11:47:30;;;;;;;3.30;1.33;;;15.80;61.50;;;;;;5086615;28;20047;-73
2021/09/30 11:49:57;;;;;;;6.25;1.50;;;15.80;61.60;;;;;;5090747;28;20628;-72
2021/09/30 11:52:23;;;;;;;6.13;1.52;;;15.80;61.90;;;;;;5064001;28;20035;-70
2021/09/30 11:54:49;;;;;;;5.50;1.50;;;15.70;61.50;;;;;;5056138;28;20040;-70
2021/09/30 11:57:26;;;;;;;6.40;1.60;;;15.70;61.10;;;;;;5088567;28;20028;-74
2021/09/30 12:00:10;;;;;;;5.13;1.45;;;15.70;61.20;;;;;;5088658;28;20059;-73
2021/09/30 12:02:36;;;;;;;7.47;1.40;;;15.70;61.50;;;;;;5088227;28;20015;-73
2021/09/30 12:05:02;;;;;;;5.35;1.70;;;15.70;61.00;;;;;;5091566;28;20028;-70
2021/09/30 12:07:28;;;;;;;4.68;1.30;;;15.80;60.50;;;;;;5084437;28;20490;-74
2021/09/30 12:09:56;;;;;;;5.93;1.42;;;15.80;61.10;;;;;;5086103;28;20114;-70
2021/09/30 12:12:34;;;;;;;4.95;1.83;;;15.80;61.30;;;;;;5084507;28;20601;-73
2021/09/30 12:15:00;;;;;;;6.22;1.88;;;16.00;59.90;;;;;;5067252;28;20040;-73
2021/09/30 12:17:34;;;;;;;7.10;1.30;;;16.00;58.80;;;;;;5087728;28;20040;-71
2021/09/30 12:20:01;;;;;;;4.22;1.50;;;16.10;59.30;;;;;;5078880;28;20028;-71
2021/09/30 12:22:34;;;;;;;4.57;1.73;;;16.10;59.30;;;;;;5064485;28;20036;-70
2021/09/30 12:25:06;;;;;;;7.97;1.48;;;16.10;59.30;;;;;;5064218;28;20032;-70
2021/09/30 12:27:35;;;;;;;2.83;1.10;;;16.20;60.10;;;;;;5084081;28;20355;-70
2021/09/30 12:30:06;;;;;;;5.25;1.30;;;16.20;60.90;;;;;;5080214;28;20059;-73
2021/09/30 12:32:37;;;;;;;6.07;1.40;;;16.20;58.30;;;;;;5085436;28;20036;-73
2021/09/30 12:35:08;;;;;;;7.75;1.35;;;16.20;58.20;;;;;;5069489;28;20036;-70
2021/09/30 12:37:37;;;;;;;3.78;1.30;;;16.10;57.50;;;;;;5078395;28;20036;-73
2021/09/30 12:40:15;;;;;;;5.03;1.17;;;16.10;58.20;;;;;;5083425;28;20040;-73
2021/09/30 12:42:55;;;;;;;5.22;1.35;;;16.00;59.30;;;;;;5081737;28;20115;-73
2021/09/30 12:45:20;;;;;;;2.80;0.90;;;16.00;58.70;;;;;;5086245;28;20506;-73
2021/09/30 12:47:46;;;;;;;4.78;1.40;;;16.00;59.50;;;;;;5062443;28;20028;-73
2021/09/30 12:50:15;;;;;;;4.63;1.33;;;16.00;58.40;;;;;;5061667;28;20051;-70
2021/09/30 12:52:43;;;;;;;6.20;1.50;;;16.00;57.00;;;;;;5081257;28;20038;-70
2021/09/30 12:55:21;;;;;;;5.85;1.25;;;15.90;57.00;;;;;;5069414;28;20161;-70
2021/09/30 12:57:47;;;;;;;4.97;1.17;;;15.90;58.40;;;;;;5063556;28;20036;-73
2021/09/30 13:00:18;;;;;;;5.95;1.30;;;15.90;58.70;;;;;;5080195;28;20024;-70
2021/09/30 13:02:48;;;;;;;5.90;1.15;;;15.90;57.80;;;;;;5062592;28;20071;-70
2021/09/30 13:05:15;;;;;;;5.05;1.27;;;15.90;58.40;;;;;;5076093;28;20059;-73
2021/09/30 13:07:52;;;;;;;6.38;1.30;;;15.90;58.60;;;;;;5081799;28;20406;-71
2021/09/30 13:10:19;;;;;;;5.38;1.30;;;15.90;60.10;;;;;;5081464;28;20083;-70
2021/09/30 13:13:07;;;;;;;6.07;1.25;;;16.00;59.00;;;;;;5061362;28;20315;-73
2021/09/30 13:15:46;;;;;;;4.30;1.45;;;15.90;59.30;;;;;;5067436;28;20028;-70
2021/09/30 13:18:15;;;;;;;6.05;1.30;;;15.90;59.30;;;;;;5062258;28;20040;-71
2021/09/30 13:20:43;;;;;;;5.85;1.35;;;15.80;59.30;;;;;;5080737;28;20122;-70
2021/09/30 13:23:10;;;;;;;5.43;1.30;;;15.80;59.80;;;;;;5083175;28;20055;-73
2021/09/30 13:25:36;;;;;;;5.57;1.27;;;15.70;59.60;;;;;;5083280;28;20463;-73
2021/09/30 13:28:03;;;;;;;8.70;1.60;;;15.70;59.10;;;;;;5073557;28;20115;-73
2021/09/30 13:30:35;;;;;;;5.47;1.65;;;15.60;59.60;;;;;;5095227;28;20032;-70
2021/09/30 13:33:02;;;;;;;8.73;1.83;;;15.60;60.20;;;;;;5087832;28;20019;-71
2021/09/30 13:35:31;;;;;;;7.40;1.50;;;15.60;60.40;;;;;;5089172;28;20391;-73
2021/09/30 13:37:57;;;;;;;5.38;1.45;;;15.70;60.80;;;;;;5087726;28;20049;-73
2021/09/30 13:40:24;;;;;;;7.53;1.40;;;15.70;60.40;;;;;;5089767;28;20033;-73
2021/09/30 13:42:51;;;;;;;8.35;1.98;;;15.70;60.10;;;;;;5053843;28;20036;-73
2021/09/30 13:45:19;;;;;;;8.85;1.65;;;15.70;60.40;;;;;;5063304;28;20118;-74
2021/09/30 13:47:45;;;;;;;6.45;1.45;;;15.70;60.40;;;;;;5090897;28;20038;-73
2021/09/30 13:50:16;;;;;;;3.88;1.10;;;15.70;61.00;;;;;;5072192;28;20058;-70
2021/09/30 13:52:44;;;;;;;6.38;1.58;;;15.70;61.50;;;;;;5085109;28;20469;-70
2021/09/30 13:55:11;;;;;;;6.20;1.50;;;15.60;61.10;;;;;;5071826;28;20036;-71
2021/09/30 13:57:37;;;;;;;7.10;1.35;;;15.60;61.50;;;;;;5083138;28;20042;-70
2021/09/30 14:00:05;;;;;;;5.25;1.30;;;15.60;61.50;;;;;;5095533;28;20024;-70
2021/09/30 14:02:31;;;;;;;6.78;1.67;;;15.60;61.70;;;;;;5074312;28;20027;-71
2021/09/30 14:04:57;;;;;;;8.68;1.80;;;15.60;62.40;;;;;;5094959;28;20028;-73
2021/09/30 14:07:23;;;;;;;5.60;1.50;;;15.60;62.20;;;;;;5066255;28;20101;-73
2021/09/30 14:09:48;;;;;;;6.50;1.33;;;15.50;62.60;;;;;;5083400;28;20040;-70
2021/09/30 14:12:15;;;;;;;5.85;1.50;;;15.50;63.10;;;;;;5085238;28;20036;-70
2021/09/30 14:14:40;;;;;;;8.27;2.00;;;15.50;62.90;;;;;;5083176;28;20108;-70
2021/09/30 14:17:06;;;;;;;4.95;1.42;;;15.50;63.70;;;;;;5080340;28;20035;-70
2021/09/30 14:19:32;;;;;;;6.70;1.75;;;15.50;63.80;;;;;;5081317;28;20032;-70
2021/09/30 14:21:58;;;;;;;9.55;1.73;;;15.50;63.30;;;;;;5084711;28;20417;-70
2021/09/30 14:24:24;;;;;;;7.47;1.70;;;15.40;63.20;;;;;;5062381;28;20475;-70
2021/09/30 14:26:50;;;;;;;5.45;1.25;;;15.40;63.30;;;;;;5081425;28;20487;-70
2021/09/30 14:29:16;;;;;;;8.98;2.50;;;15.40;64.30;;;;;;5083074;28;20030;-73
2021/09/30 14:31:41;;;;;;;6.32;1.70;;;15.40;63.80;;;;;;5087346;28;20486;-70
2021/09/30 14:34:07;;;;;;;6.18;2.28;;;15.40;64.20;;;;;;5081493;28;20036;-72
2021/09/30 14:36:33;;;;;;;6.43;2.05;;;15.40;62.80;;;;;;5088593;28;20513;-70
2021/09/30 14:39:00;;;;;;;6.50;1.80;;;15.30;63.30;;;;;;5067743;28;20524;-70
2021/09/30 14:41:25;;;;;;;9.98;2.20;;;15.30;64.00;;;;;;5071192;28;20487;-73
2021/09/30 14:43:52;;;;;;;6.07;1.90;;;15.30;64.70;;;;;;5084404;28;20032;-73
2021/09/30 14:46:18;;;;;;;9.23;2.08;;;15.40;64.40;;;;;;5067559;28;20024;-72
2021/09/30 14:48:44;;;;;;;6.47;1.73;;;15.40;64.20;;;;;;5062093;28;20490;-70
2021/09/30 14:51:11;;;;;;;6.00;2.22;;;15.40;64.10;;;;;;5078964;28;20043;-73
2021/09/30 14:53:38;;;;;;;5.05;1.77;;;15.50;64.60;;;;;;5077176;28;20093;-73
2021/09/30 14:56:05;;;;;;;8.00;2.20;;;15.50;65.20;;;;;;5085130;28;20033;-73
2021/09/30 14:58:32;;;;;;;8.07;2.00;;;15.50;64.50;;;;;;5051509;28;20039;-72
2021/09/30 15:00:58;;;;;;;8.40;2.42;;;15.50;64.20;;;;;;5086537;28;20107;-73
2021/09/30 15:03:24;;;;;;;6.35;2.28;;;15.50;63.80;;;;;;5061700;28;20055;-73
2021/09/30 15:05:49;;;;;;;7.18;2.17;;;15.50;63.90;;;;;;5065755;28;20028;-73
2021/09/30 15:08:15;;;;;;;8.82;2.35;;;15.50;64.90;;;;;;5083487;28;20032;-73
2021/09/30 15:10:41;;;;;;;10.75;3.05;;;15.50;64.50;;;;;;5077404;28;20483;-73
2021/09/30 15:13:07;;;;;;;7.97;1.70;;;15.50;64.40;;;;;;5060414;28;20025;-73
2021/09/30 15:15:34;;;;;;;6.18;1.75;;;15.50;64.90;;;;;;5072625;28;20020;-73
2021/09/30 15:18:03;;;;;;;9.07;2.33;;;15.50;64.80;;;;;;5047794;28;20048;-73
2021/09/30 15:23:17;;;;;;;5.80;1.70;;;15.50;64.30;;;;;;5053479;28;20415;-73
2021/09/30 15:25:44;;;;;;;9.85;2.97;;;15.50;64.90;;;;;;5050369;28;20438;-73
2021/09/30 15:28:14;;;;;;;6.70;2.08;;;15.50;65.40;;;;;;5061880;28;20534;-73
2021/09/30 15:30:41;;;;;;;5.45;1.60;;;15.50;65.20;;;;;;5063889;28;20094;-73
2021/09/30 15:33:10;;;;;;;6.47;1.77;;;15.50;65.20;;;;;;5063066;28;20115;-72
2021/09/30 15:35:36;;;;;;;7.38;1.80;;;15.50;64.90;;;;;;5057601;28;20029;-72
2021/09/30 15:38:03;;;;;;;5.57;1.60;;;15.50;64.60;;;;;;5040112;28;20045;-72
2021/09/30 15:40:28;;;;;;;8.90;2.08;;;15.40;65.00;;;;;;5034651;28;20044;-72
2021/09/30 15:42:54;;;;;;;5.28;1.60;;;15.40;65.10;;;;;;5026467;28;20053;-72
2021/09/30 15:45:21;;;;;;;5.95;1.50;;;15.30;65.20;;;;;;5031950;28;20148;-72
2021/09/30 15:47:46;;;;;;;8.02;1.45;;;15.30;66.20;;;;;;5034587;28;20048;-72
2021/09/30 15:50:15;;;;;;;6.32;1.60;;;15.30;65.80;;;;;;5037558;28;20026;-72
2021/09/30 15:52:40;;;;;;;7.60;2.00;;;15.30;65.90;;;;;;5027047;28;20048;-72